Time;durP1;ratioP1;P1;durP2;ratioP2;P2;SDS_P1;SDS_P2;PMS_P1;PMS_P2;Temp;Humidity;BMP_temperature;BMP_pressure;BME280_temperature;BME280_humidity;BME280_pressure;Samples;Min_cycle;Max_cycle;Signal;HPM_P1;HPM_P2
2022/12/19 00:01:26;;;;;;;10.23;2.90;;;21.00;99.90;;;;;;4936850;29;20251;-75
2022/12/19 00:03:57;;;;;;;12.63;2.87;;;20.70;99.90;;;;;;4936673;29;20190;-73
2022/12/19 00:06:26;;;;;;;12.17;2.50;;;20.60;99.90;;;;;;4935919;29;20224;-71
2022/12/19 00:08:55;;;;;;;15.33;2.20;;;21.40;99.90;;;;;;4936373;29;20180;-73
2022/12/19 00:11:24;;;;;;;12.63;3.03;;;22.20;99.90;;;;;;4936481;29;20187;-74
2022/12/19 00:13:52;;;;;;;10.27;3.03;;;22.40;99.90;;;;;;4936209;29;20187;-74
2022/12/19 00:16:23;;;;;;;9.90;2.30;;;22.10;99.90;;;;;;4936321;29;20279;-74
2022/12/19 00:18:52;;;;;;;6.70;2.50;;;22.20;99.90;;;;;;4935928;29;20208;-73
2022/12/19 00:21:23;;;;;;;15.87;2.60;;;22.40;99.90;;;;;;4935752;29;20943;-71
2022/12/19 00:23:51;;;;;;;11.03;2.97;;;22.40;99.90;;;;;;4936746;29;20231;-75
2022/12/19 00:26:33;;;;;;;11.27;3.63;;;22.20;99.90;;;;;;4936126;29;20241;-75
2022/12/19 00:29:04;;;;;;;15.07;3.53;;;21.90;99.90;;;;;;4936296;29;20660;-69
2022/12/19 00:31:34;;;;;;;9.57;2.80;;;21.80;99.90;;;;;;4935186;29;20184;-76
2022/12/19 00:34:02;;;;;;;12.93;2.93;;;21.70;99.90;;;;;;4936233;29;20188;-77
2022/12/19 00:36:32;;;;;;;9.50;2.70;;;21.60;99.90;;;;;;4935710;29;20199;-79
2022/12/19 00:39:01;;;;;;;12.03;3.40;;;21.80;99.90;;;;;;4935837;29;20192;-72
2022/12/19 00:41:32;;;;;;;14.37;3.33;;;21.70;99.90;;;;;;4936039;29;20185;-80
2022/12/19 00:44:01;;;;;;;18.60;3.23;;;21.50;99.90;;;;;;4935451;29;20662;-75
2022/12/19 00:46:31;;;;;;;9.67;2.40;;;21.40;99.90;;;;;;4935734;29;20279;-69
2022/12/19 00:48:59;;;;;;;15.90;3.10;;;21.40;99.90;;;;;;4936004;29;20176;-73
2022/12/19 00:51:30;;;;;;;14.50;3.30;;;21.40;99.90;;;;;;4935268;29;20236;-79
2022/12/19 00:53:59;;;;;;;8.40;2.60;;;21.70;99.90;;;;;;4935943;29;20235;-75
2022/12/19 00:56:33;;;;;;;12.93;2.57;;;22.30;99.90;;;;;;4935601;29;20703;-78
2022/12/19 00:59:01;;;;;;;16.43;3.70;;;22.90;99.90;;;;;;4935350;29;20588;-77
2022/12/19 01:01:33;;;;;;;14.73;3.03;;;23.50;99.90;;;;;;4935610;29;20184;-76
2022/12/19 01:04:02;;;;;;;15.30;3.43;;;24.70;99.90;;;;;;4930378;29;20195;-74
2022/12/19 01:06:30;;;;;;;14.87;2.60;;;25.40;99.90;;;;;;4934701;29;20223;-71
2022/12/19 01:08:58;;;;;;;10.67;2.30;;;24.40;99.90;;;;;;4935508;29;20205;-74
2022/12/19 01:14:13;;;;;;;11.00;2.70;;;23.50;99.90;;;;;;4934528;29;20195;-79
2022/12/19 01:16:41;;;;;;;11.37;2.57;;;23.00;99.90;;;;;;4935319;29;20179;-76
2022/12/19 01:19:08;;;;;;;15.77;3.13;;;22.70;99.90;;;;;;4935097;29;20187;-77
2022/12/19 01:21:37;;;;;;;13.13;2.93;;;22.80;99.90;;;;;;4932678;29;20211;-75
2022/12/19 01:24:05;;;;;;;13.97;3.27;;;22.70;99.90;;;;;;4935231;29;20220;-71
2022/12/19 01:26:33;;;;;;;15.10;3.67;;;22.70;99.90;;;;;;4932950;29;20241;-73
2022/12/19 01:29:01;;;;;;;11.30;2.37;;;22.70;99.90;;;;;;4934806;29;20684;-73
2022/12/19 01:31:29;;;;;;;14.07;3.47;;;22.50;99.90;;;;;;4934797;29;20187;-70
2022/12/19 01:34:00;;;;;;;8.30;2.53;;;22.30;99.90;;;;;;4934937;29;20189;-69
2022/12/19 01:36:28;;;;;;;9.07;2.87;;;22.20;99.90;;;;;;4934946;29;20181;-76
2022/12/19 01:38:56;;;;;;;10.63;2.70;;;22.40;99.90;;;;;;4935315;29;20211;-77
2022/12/19 01:41:25;;;;;;;13.00;3.63;;;22.70;99.90;;;;;;4935146;29;20189;-72
2022/12/19 01:44:02;;;;;;;16.67;3.20;;;23.30;99.90;;;;;;4933537;29;20191;-72
2022/12/19 01:46:40;;;;;;;17.17;3.47;;;23.70;99.90;;;;;;4935224;29;20227;-73
2022/12/19 01:49:27;;;;;;;14.57;3.60;;;23.50;99.90;;;;;;4934756;29;20290;-76
2022/12/19 01:51:59;;;;;;;11.60;3.10;;;23.00;99.90;;;;;;4934530;29;20275;-71
2022/12/19 01:54:35;;;;;;;12.73;3.47;;;22.70;99.90;;;;;;4934878;29;20565;-73
2022/12/19 01:57:08;;;;;;;15.60;3.83;;;23.30;99.90;;;;;;4934078;29;20180;-73
2022/12/19 01:59:51;;;;;;;13.37;3.33;;;23.20;99.90;;;;;;4936728;29;20671;-70
2022/12/19 02:02:31;;;;;;;15.10;3.40;;;22.90;99.90;;;;;;4933907;29;20196;-72
2022/12/19 02:05:03;;;;;;;14.27;3.70;;;22.70;99.90;;;;;;4937723;29;20666;-78
2022/12/19 02:07:32;;;;;;;13.33;3.60;;;22.30;99.90;;;;;;4934978;29;20212;-74
2022/12/19 02:10:00;;;;;;;19.83;3.30;;;22.10;99.90;;;;;;4934317;29;20210;-79
2022/12/19 02:12:33;;;;;;;15.27;3.60;;;22.10;99.90;;;;;;4934550;29;20189;-72
2022/12/19 02:15:02;;;;;;;11.53;3.80;;;22.20;99.90;;;;;;4934841;29;20231;-71
2022/12/19 02:18:03;;;;;;;14.10;3.43;;;22.00;99.90;;;;;;4934957;29;20320;-72
2022/12/19 02:21:10;;;;;;;10.03;3.00;;;23.10;99.90;;;;;;4933793;29;20188;-74
2022/12/19 02:24:05;;;;;;;16.97;2.70;;;23.40;99.90;;;;;;4934059;29;20552;-72
2022/12/19 02:26:57;;;;;;;12.20;2.77;;;23.90;99.90;;;;;;4934525;29;20231;-70
2022/12/19 02:29:31;;;;;;;12.93;2.57;;;24.80;99.90;;;;;;4934198;29;20188;-74
2022/12/19 02:32:19;;;;;;;11.43;3.20;;;24.70;97.50;;;;;;4915620;29;20220;-73
2022/12/19 02:34:50;;;;;;;19.73;3.27;;;24.50;96.80;;;;;;4916787;29;20216;-73
2022/12/19 02:37:29;;;;;;;13.70;2.97;;;25.20;95.80;;;;;;4934149;29;20195;-71
2022/12/19 02:40:27;;;;;;;10.50;2.80;;;25.30;87.60;;;;;;4931639;29;20191;-74
2022/12/19 02:43:01;;;;;;;14.83;3.17;;;25.20;88.70;;;;;;4933866;29;20176;-71
2022/12/19 02:45:35;;;;;;;17.80;3.37;;;25.20;91.40;;;;;;4934410;29;20761;-77
2022/12/19 02:48:07;;;;;;;15.63;2.63;;;24.80;91.20;;;;;;4934798;29;20658;-73
2022/12/19 02:50:43;;;;;;;16.57;3.33;;;24.10;85.40;;;;;;4933821;29;20618;-71
2022/12/19 02:53:14;;;;;;;17.83;3.33;;;24.30;91.70;;;;;;4934237;29;20356;-71
2022/12/19 02:56:04;;;;;;;15.20;3.30;;;24.80;95.00;;;;;;4934451;29;20268;-70
2022/12/19 02:58:59;;;;;;;9.27;2.80;;;24.20;91.00;;;;;;4914603;29;20662;-69
2022/12/19 03:01:29;;;;;;;19.20;3.67;;;24.50;91.60;;;;;;4919182;29;20180;-70
2022/12/19 03:04:28;;;;;;;18.30;3.20;;;24.30;90.20;;;;;;4933579;29;20184;-71
2022/12/19 03:07:00;;;;;;;10.93;2.67;;;24.40;88.40;;;;;;4934419;29;20207;-71
2022/12/19 03:09:51;;;;;;;11.97;3.23;;;23.90;85.60;;;;;;4938111;29;20180;-70
2022/12/19 03:12:28;;;;;;;15.20;2.50;;;24.40;90.00;;;;;;4937049;29;20184;-71
2022/12/19 03:14:58;;;;;;;10.43;2.90;;;24.10;78.60;;;;;;4938048;29;20658;-71
2022/12/19 03:17:27;;;;;;;15.90;3.57;;;24.00;89.80;;;;;;4936427;29;20196;-71
2022/12/19 03:19:56;;;;;;;14.63;2.80;;;23.70;97.10;;;;;;4935999;29;20607;-71
2022/12/19 03:22:24;;;;;;;14.50;3.13;;;24.10;93.50;;;;;;4937162;29;20184;-70
2022/12/19 03:24:51;;;;;;;17.40;3.50;;;24.60;97.10;;;;;;4937105;29;20212;-72
2022/12/19 03:27:32;;;;;;;15.70;3.37;;;24.30;94.40;;;;;;4937133;29;20222;-68
2022/12/19 03:30:10;;;;;;;12.77;3.30;;;23.80;97.30;;;;;;4937585;29;20180;-70
2022/12/19 03:32:41;;;;;;;16.87;4.03;;;24.40;96.10;;;;;;4936957;29;20192;-75
2022/12/19 03:35:19;;;;;;;10.83;2.70;;;24.90;92.40;;;;;;4937028;29;20248;-72
2022/12/19 03:37:50;;;;;;;13.97;2.70;;;25.00;95.40;;;;;;4937484;29;20211;-72
2022/12/19 03:40:21;;;;;;;14.93;3.20;;;24.10;95.60;;;;;;4937429;29;20224;-71
2022/12/19 03:43:10;;;;;;;18.87;3.73;;;24.20;96.60;;;;;;4936554;29;20607;-71
2022/12/19 03:45:53;;;;;;;13.80;3.00;;;24.50;97.60;;;;;;4937255;29;20305;-73
2022/12/19 03:48:30;;;;;;;13.07;2.90;;;24.40;95.90;;;;;;4936596;29;20194;-76
2022/12/19 03:51:02;;;;;;;13.83;2.83;;;24.60;95.50;;;;;;4936744;29;20188;-72
2022/12/19 03:53:59;;;;;;;12.30;2.63;;;24.80;97.90;;;;;;4936541;29;20231;-72
2022/12/19 03:57:09;;;;;;;12.10;3.10;;;25.20;93.60;;;;;;4936815;29;20216;-71
2022/12/19 03:59:46;;;;;;;14.90;3.37;;;24.60;97.20;;;;;;4878170;29;20648;-71
2022/12/19 04:02:17;;;;;;;14.23;2.90;;;23.80;98.40;;;;;;4928301;29;20204;-72
2022/12/19 04:04:49;;;;;;;26.20;4.37;;;24.10;98.60;;;;;;4917494;29;20208;-71
2022/12/19 04:07:18;;;;;;;17.13;3.43;;;24.20;99.90;;;;;;4933829;29;20249;-71
2022/12/19 04:09:47;;;;;;;15.63;3.17;;;23.90;97.80;;;;;;4936969;29;20184;-71
2022/12/19 04:12:30;;;;;;;15.17;3.00;;;23.30;99.90;;;;;;4936302;29;20200;-71
2022/12/19 04:14:58;;;;;;;14.23;3.33;;;24.10;99.90;;;;;;4936803;29;20223;-71
2022/12/19 04:17:52;;;;;;;17.27;3.83;;;24.70;99.90;;;;;;4936097;29;20187;-70
2022/12/19 04:20:22;;;;;;;11.67;3.10;;;24.90;99.90;;;;;;4935395;29;20199;-70
2022/12/19 04:23:03;;;;;;;12.30;3.03;;;24.70;99.90;;;;;;4936349;29;20214;-71
2022/12/19 04:25:37;;;;;;;9.70;3.17;;;24.40;99.90;;;;;;4935808;29;20295;-69
2022/12/19 04:28:29;;;;;;;15.33;3.20;;;24.10;99.90;;;;;;4936144;29;20192;-73
2022/12/19 04:30:57;;;;;;;14.93;3.30;;;24.10;99.90;;;;;;4936382;29;20219;-71
2022/12/19 04:33:24;;;;;;;9.40;3.10;;;24.40;99.90;;;;;;4935883;29;20187;-71
2022/12/19 04:35:52;;;;;;;11.67;3.33;;;24.20;99.90;;;;;;4936277;29;20291;-70
2022/12/19 04:38:19;;;;;;;14.00;3.53;;;24.40;99.90;;;;;;4936210;29;20207;-69
2022/12/19 04:40:46;;;;;;;13.33;3.13;;;24.60;99.90;;;;;;4935648;29;20192;-73
2022/12/19 04:43:14;;;;;;;11.00;2.60;;;24.40;99.90;;;;;;4934576;29;20310;-70
2022/12/19 04:45:41;;;;;;;15.30;3.23;;;24.10;99.80;;;;;;4937186;29;20564;-71
2022/12/19 04:48:09;;;;;;;14.50;3.20;;;24.10;99.90;;;;;;4935618;29;20185;-71
2022/12/19 04:50:36;;;;;;;12.47;3.03;;;24.20;99.90;;;;;;4935898;29;20207;-71
2022/12/19 04:53:04;;;;;;;14.37;3.47;;;24.10;99.70;;;;;;4935825;29;20232;-71
2022/12/19 04:55:31;;;;;;;14.07;3.27;;;24.40;99.90;;;;;;4935039;29;20193;-72
2022/12/19 04:57:59;;;;;;;12.77;3.10;;;24.40;97.60;;;;;;4935861;29;20184;-74
2022/12/19 05:00:26;;;;;;;16.20;3.63;;;24.20;98.80;;;;;;4935622;29;20176;-70
2022/12/19 05:02:53;;;;;;;16.80;3.00;;;24.00;97.40;;;;;;4935435;29;20184;-70
2022/12/19 05:05:21;;;;;;;16.97;3.77;;;24.00;98.40;;;;;;4938719;29;20266;-69
2022/12/19 05:07:48;;;;;;;16.53;3.33;;;23.90;96.60;;;;;;4935089;29;20275;-69
2022/12/19 05:10:16;;;;;;;13.87;3.00;;;24.20;97.60;;;;;;4935220;29;20219;-73
2022/12/19 05:12:44;;;;;;;13.63;3.23;;;24.40;93.60;;;;;;4935405;29;20245;-71
2022/12/19 05:15:11;;;;;;;10.47;3.10;;;24.40;97.30;;;;;;4935479;29;20211;-71
2022/12/19 05:17:41;;;;;;;17.40;3.10;;;24.50;95.00;;;;;;4934881;29;20226;-69
2022/12/19 05:20:09;;;;;;;13.67;2.83;;;24.30;95.90;;;;;;4935524;29;20195;-69
2022/12/19 05:22:37;;;;;;;14.77;2.60;;;23.80;99.90;;;;;;4935323;29;20295;-70
2022/12/19 05:25:05;;;;;;;21.17;3.43;;;23.80;99.20;;;;;;4935012;29;20233;-70
2022/12/19 05:27:32;;;;;;;14.27;3.20;;;23.80;99.90;;;;;;4939212;29;20188;-69
2022/12/19 05:30:00;;;;;;;14.03;3.20;;;23.80;99.90;;;;;;4930250;29;20188;-70
2022/12/19 05:32:31;;;;;;;16.63;3.77;;;24.00;99.90;;;;;;4934226;29;20184;-72
2022/12/19 05:34:58;;;;;;;19.03;3.83;;;24.00;99.90;;;;;;4935320;29;20263;-69
2022/12/19 05:37:27;;;;;;;18.97;3.77;;;23.80;99.90;;;;;;4934833;29;20244;-72
2022/12/19 05:39:54;;;;;;;18.50;3.53;;;23.60;99.90;;;;;;4932841;29;20188;-70
2022/12/19 05:42:22;;;;;;;14.23;3.20;;;23.30;99.90;;;;;;4935616;29;20181;-77
2022/12/19 05:44:49;;;;;;;15.13;3.03;;;23.20;99.90;;;;;;4934993;29;20212;-71
2022/12/19 05:47:16;;;;;;;18.17;3.20;;;23.50;99.90;;;;;;4933996;29;20204;-73
2022/12/19 05:49:44;;;;;;;15.00;3.17;;;23.50;99.90;;;;;;4935118;29;20185;-73
2022/12/19 05:52:11;;;;;;;17.97;3.77;;;23.40;99.90;;;;;;4934515;29;20192;-68
2022/12/19 05:54:39;;;;;;;12.97;3.33;;;23.40;99.90;;;;;;4933904;29;20194;-70
2022/12/19 05:57:09;;;;;;;10.77;3.13;;;23.70;99.90;;;;;;4934466;29;20295;-69
2022/12/19 05:59:37;;;;;;;19.70;3.87;;;23.80;99.90;;;;;;4934683;29;20260;-72
2022/12/19 06:02:04;;;;;;;16.97;3.07;;;23.10;99.90;;;;;;4934340;29;20192;-71
2022/12/19 06:04:32;;;;;;;17.07;3.43;;;23.20;99.90;;;;;;4934125;29;20501;-75
2022/12/19 06:06:59;;;;;;;16.83;3.60;;;23.40;99.90;;;;;;4934650;29;20202;-71
2022/12/19 06:09:26;;;;;;;17.03;3.93;;;23.40;99.90;;;;;;4932691;29;20184;-71
2022/12/19 06:11:54;;;;;;;21.87;4.07;;;23.20;99.90;;;;;;4934582;29;20243;-70
2022/12/19 06:14:21;;;;;;;19.47;4.03;;;23.30;99.90;;;;;;4933463;29;20272;-72
2022/12/19 06:16:49;;;;;;;11.97;3.27;;;23.30;99.90;;;;;;4933361;29;20215;-70
2022/12/19 06:19:16;;;;;;;10.73;3.00;;;23.20;99.90;;;;;;4934113;29;20193;-70
2022/12/19 06:21:44;;;;;;;20.37;4.27;;;23.30;99.90;;;;;;4934399;29;20183;-70
2022/12/19 06:24:11;;;;;;;15.10;3.13;;;23.30;99.90;;;;;;4934320;29;20184;-70
2022/12/19 06:26:39;;;;;;;14.07;3.00;;;23.10;99.90;;;;;;4934437;29;20315;-70
2022/12/19 06:29:06;;;;;;;20.40;3.40;;;22.90;99.90;;;;;;4934228;29;20540;-69
2022/12/19 06:31:33;;;;;;;10.97;2.73;;;22.90;99.90;;;;;;4932618;29;20181;-70
2022/12/19 06:34:01;;;;;;;16.27;3.10;;;22.80;99.90;;;;;;4934105;29;20188;-70
2022/12/19 06:36:30;;;;;;;11.50;2.83;;;23.10;99.90;;;;;;4933110;29;20603;-69
2022/12/19 06:38:58;;;;;;;17.00;3.50;;;23.10;99.90;;;;;;4933211;29;20192;-69
2022/12/19 06:44:13;;;;;;;14.03;2.90;;;22.40;99.50;;;;;;4938088;29;20235;-69
2022/12/19 06:46:41;;;;;;;17.30;3.10;;;22.10;99.90;;;;;;4937494;29;20687;-69
2022/12/19 06:49:10;;;;;;;12.07;3.20;;;21.90;99.90;;;;;;4937932;29;20244;-69
2022/12/19 06:51:37;;;;;;;14.90;3.30;;;22.00;99.90;;;;;;4938130;29;20184;-69
2022/12/19 06:54:06;;;;;;;15.83;3.23;;;22.20;99.90;;;;;;4936431;29;20231;-70
2022/12/19 06:56:38;;;;;;;12.70;3.00;;;22.00;99.90;;;;;;4938127;29;20195;-69
2022/12/19 06:59:07;;;;;;;17.53;3.20;;;21.90;99.90;;;;;;4936584;29;20201;-71
2022/12/19 07:02:03;;;;;;;15.53;3.50;;;22.10;99.90;;;;;;4937263;29;20204;-70
2022/12/19 07:04:38;;;;;;;20.57;3.37;;;22.00;99.90;;;;;;4938633;29;20184;-71
2022/12/19 07:07:06;;;;;;;12.33;2.70;;;21.80;99.90;;;;;;4937966;29;20202;-72
2022/12/19 07:09:34;;;;;;;15.50;3.20;;;21.70;99.90;;;;;;4936883;29;20202;-76
2022/12/19 07:12:02;;;;;;;14.30;2.87;;;21.60;99.90;;;;;;4937428;29;20186;-75
2022/12/19 07:14:29;;;;;;;12.40;3.10;;;21.20;99.90;;;;;;4937520;29;20650;-73
2022/12/19 07:16:59;;;;;;;11.73;2.97;;;21.30;99.90;;;;;;4936750;29;20190;-76
2022/12/19 07:19:27;;;;;;;16.40;3.13;;;21.20;99.90;;;;;;4937784;29;20220;-71
2022/12/19 07:21:55;;;;;;;15.53;3.00;;;21.00;99.90;;;;;;4937572;29;20184;-71
2022/12/19 07:24:23;;;;;;;19.63;3.40;;;21.00;99.90;;;;;;4936858;29;20181;-74
2022/12/19 07:26:50;;;;;;;11.63;3.33;;;20.90;99.90;;;;;;4938057;29;20216;-75
2022/12/19 07:29:18;;;;;;;10.60;2.97;;;20.90;99.90;;;;;;4937125;29;20191;-75
2022/12/19 07:31:45;;;;;;;18.47;3.57;;;20.90;99.90;;;;;;4936956;29;20604;-77
2022/12/19 07:34:12;;;;;;;12.37;2.93;;;20.80;99.90;;;;;;4937476;29;20182;-74
2022/12/19 07:36:40;;;;;;;16.90;3.07;;;20.80;99.90;;;;;;4937154;29;20185;-78
2022/12/19 07:39:07;;;;;;;15.47;3.00;;;20.70;99.90;;;;;;4935956;29;20200;-72
2022/12/19 07:41:38;;;;;;;15.67;3.47;;;20.80;99.90;;;;;;4937323;29;20179;-80
2022/12/19 07:44:07;;;;;;;13.60;2.87;;;20.80;99.90;;;;;;4937236;29;20184;-80
2022/12/19 07:46:35;;;;;;;9.93;2.87;;;20.80;99.90;;;;;;4919403;29;20230;-77
2022/12/19 07:49:02;;;;;;;13.07;3.47;;;20.50;99.90;;;;;;4919771;29;20556;-77
2022/12/19 07:51:30;;;;;;;12.90;3.80;;;20.50;99.90;;;;;;4937047;29;20182;-78
2022/12/19 07:53:58;;;;;;;14.30;3.20;;;20.20;99.90;;;;;;4935308;29;20311;-79
2022/12/19 07:56:26;;;;;;;16.43;3.43;;;20.30;99.90;;;;;;4919760;29;20823;-78
2022/12/19 07:58:53;;;;;;;11.13;3.20;;;20.30;99.90;;;;;;4936416;29;20523;-72
2022/12/19 08:01:21;;;;;;;19.67;3.50;;;20.10;99.90;;;;;;4936608;29;20181;-70
2022/12/19 08:03:48;;;;;;;13.87;2.80;;;20.00;99.90;;;;;;4937652;29;20267;-73
2022/12/19 08:06:16;;;;;;;19.60;3.87;;;20.00;99.90;;;;;;4936718;29;20440;-72
2022/12/19 08:08:43;;;;;;;13.37;3.47;;;19.80;99.90;;;;;;4935943;29;20235;-76
2022/12/19 08:11:13;;;;;;;15.27;3.47;;;19.70;99.90;;;;;;4936637;29;20216;-76
2022/12/19 08:13:40;;;;;;;21.33;3.97;;;19.60;99.90;;;;;;4936603;29;20660;-75
2022/12/19 08:16:09;;;;;;;14.93;4.00;;;19.60;99.90;;;;;;4936215;29;20197;-74
2022/12/19 08:18:36;;;;;;;21.20;3.90;;;19.50;99.90;;;;;;4935970;29;20181;-77
2022/12/19 08:21:04;;;;;;;14.17;3.03;;;19.40;99.90;;;;;;4936525;29;20193;-72
2022/12/19 08:23:33;;;;;;;22.93;4.27;;;19.40;99.90;;;;;;4935755;29;20175;-76
2022/12/19 08:26:02;;;;;;;23.43;3.97;;;19.30;99.90;;;;;;4936312;29;20223;-71
2022/12/19 08:28:31;;;;;;;18.40;3.70;;;19.20;99.90;;;;;;4934795;29;20215;-71
2022/12/19 08:31:05;;;;;;;21.07;3.13;;;19.00;99.90;;;;;;4935590;29;20662;-72
2022/12/19 08:33:33;;;;;;;17.80;3.70;;;18.70;99.90;;;;;;4936316;29;20184;-76
2022/12/19 08:36:04;;;;;;;28.97;3.80;;;18.60;99.90;;;;;;4936249;29;20200;-77
2022/12/19 08:38:31;;;;;;;23.33;3.53;;;18.50;99.90;;;;;;4935846;29;20177;-75
2022/12/19 08:40:59;;;;;;;16.20;3.07;;;18.40;99.90;;;;;;4935576;29;20188;-73
2022/12/19 08:43:27;;;;;;;17.13;3.50;;;18.40;99.90;;;;;;4936305;29;20192;-79
2022/12/19 08:45:54;;;;;;;12.43;3.27;;;18.30;99.90;;;;;;4935389;29;20234;-72
2022/12/19 08:48:22;;;;;;;13.70;2.93;;;18.20;99.90;;;;;;4935798;29;20184;-79
2022/12/19 08:50:58;;;;;;;14.77;3.20;;;18.10;99.90;;;;;;4935351;29;20252;-80
2022/12/19 08:53:28;;;;;;;10.03;2.97;;;18.10;99.90;;;;;;4935017;29;20247;-76
2022/12/19 08:55:57;;;;;;;15.77;3.40;;;17.90;99.90;;;;;;4935540;29;20190;-75
2022/12/19 08:58:26;;;;;;;14.10;3.43;;;17.80;99.90;;;;;;4935176;29;20206;-80
2022/12/19 09:00:54;;;;;;;19.83;3.83;;;17.90;99.90;;;;;;4934746;29;20263;-70
2022/12/19 09:03:22;;;;;;;15.00;3.27;;;17.80;99.90;;;;;;4935527;29;20193;-70
2022/12/19 09:06:01;;;;;;;18.10;3.63;;;17.80;99.90;;;;;;4935242;29;20216;-80
2022/12/19 09:08:29;;;;;;;16.20;2.87;;;17.70;99.90;;;;;;4934676;29;20188;-77
2022/12/19 09:11:07;;;;;;;16.13;3.47;;;17.70;99.90;;;;;;4935067;29;20185;-79
2022/12/19 09:13:36;;;;;;;17.07;3.20;;;17.60;99.90;;;;;;4935141;29;20235;-72
2022/12/19 09:16:07;;;;;;;11.07;3.07;;;17.50;99.90;;;;;;4935187;29;20188;-76
2022/12/19 09:18:35;;;;;;;18.13;3.67;;;17.50;99.90;;;;;;4917644;29;20237;-78
2022/12/19 09:21:02;;;;;;;18.47;3.40;;;17.40;99.90;;;;;;4934668;29;20212;-73
2022/12/19 09:23:33;;;;;;;18.57;3.57;;;17.50;99.90;;;;;;4935128;29;20208;-76
2022/12/19 09:26:10;;;;;;;13.70;3.20;;;17.40;99.90;;;;;;4934738;29;20283;-73
2022/12/19 09:28:38;;;;;;;16.87;3.50;;;17.40;99.90;;;;;;4933953;29;20255;-75
2022/12/19 09:31:10;;;;;;;17.93;3.77;;;17.30;99.90;;;;;;4934876;29;20387;-77
2022/12/19 09:33:39;;;;;;;14.67;3.30;;;17.30;99.90;;;;;;4935061;29;20239;-73
2022/12/19 09:36:10;;;;;;;18.63;3.80;;;17.30;99.90;;;;;;4934268;29;20197;-76
2022/12/19 09:38:37;;;;;;;18.53;3.37;;;17.10;99.90;;;;;;4917506;29;20295;-73
2022/12/19 09:41:08;;;;;;;11.97;3.33;;;17.10;99.90;;;;;;4934688;29;20181;-73
2022/12/19 09:44:00;;;;;;;22.10;3.50;;;17.00;99.90;;;;;;4934564;29;20180;-73
2022/12/19 09:46:59;;;;;;;18.77;3.13;;;17.00;99.90;;;;;;4934353;29;20307;-79
2022/12/19 09:49:36;;;;;;;17.17;3.10;;;16.90;99.90;;;;;;4932018;29;20203;-77
2022/12/19 09:52:41;;;;;;;13.73;3.53;;;16.90;99.90;;;;;;4919583;29;20248;-77
2022/12/19 09:55:21;;;;;;;20.70;3.50;;;16.80;99.90;;;;;;4932587;29;20192;-73
2022/12/19 09:57:55;;;;;;;16.87;4.30;;;16.80;99.90;;;;;;4934704;29;20176;-71
2022/12/19 10:00:24;;;;;;;20.23;4.73;;;16.90;99.90;;;;;;4933571;29;20211;-73
2022/12/19 10:03:02;;;;;;;24.90;4.30;;;16.90;99.90;;;;;;4917913;29;20180;-75
2022/12/19 10:06:00;;;;;;;15.20;3.53;;;17.00;99.90;;;;;;4935638;29;20700;-74
2022/12/19 10:08:39;;;;;;;15.90;3.93;;;17.00;99.90;;;;;;4935626;29;20228;-70
2022/12/19 10:11:15;;;;;;;21.53;4.50;;;17.00;99.90;;;;;;4935205;29;20219;-71
2022/12/19 10:14:06;;;;;;;17.00;4.57;;;17.00;99.90;;;;;;4935142;29;20188;-75
2022/12/19 10:16:36;;;;;;;11.90;3.80;;;16.90;99.90;;;;;;4934941;29;20181;-77
2022/12/19 10:19:07;;;;;;;16.60;4.37;;;16.90;99.90;;;;;;4935435;29;20184;-75
2022/12/19 10:21:41;;;;;;;18.90;4.17;;;16.80;99.90;;;;;;4935733;29;20180;-72
2022/12/19 10:24:33;;;;;;;15.67;3.53;;;16.80;99.90;;;;;;4935034;29;20200;-78
2022/12/19 10:27:09;;;;;;;22.17;3.50;;;16.70;99.90;;;;;;4935625;29;20220;-72
2022/12/19 10:30:02;;;;;;;20.07;3.90;;;16.80;99.90;;;;;;4935627;29;20184;-75
2022/12/19 10:32:41;;;;;;;17.20;3.37;;;16.70;99.90;;;;;;4936154;29;20631;-75
2022/12/19 10:35:19;;;;;;;16.43;3.30;;;16.70;99.90;;;;;;4938190;29;20280;-70
2022/12/19 10:38:11;;;;;;;15.30;4.17;;;16.80;99.90;;;;;;4938912;29;20563;-70
2022/12/19 10:40:54;;;;;;;20.77;3.90;;;16.70;99.90;;;;;;4933872;29;20603;-74
2022/12/19 10:43:30;;;;;;;16.93;3.47;;;16.70;99.90;;;;;;4933049;29;20266;-74
2022/12/19 10:46:10;;;;;;;17.30;3.73;;;16.70;99.90;;;;;;4932855;29;20235;-74
2022/12/19 10:48:37;;;;;;;10.70;2.90;;;16.70;99.90;;;;;;4933574;29;20185;-77
2022/12/19 10:51:10;;;;;;;19.17;4.00;;;16.70;99.90;;;;;;4934875;29;20193;-70
2022/12/19 10:53:38;;;;;;;22.73;4.00;;;16.70;99.90;;;;;;4917486;29;20232;-72
2022/12/19 10:56:24;;;;;;;19.90;3.80;;;16.60;99.90;;;;;;4935307;29;20609;-72
2022/12/19 10:58:56;;;;;;;15.23;3.27;;;16.60;99.90;;;;;;4935164;29;20211;-72
2022/12/19 11:01:34;;;;;;;12.80;2.57;;;16.60;99.90;;;;;;4935359;29;20193;-72
2022/12/19 11:04:19;;;;;;;23.87;3.80;;;16.50;99.90;;;;;;4933841;29;20236;-76
2022/12/19 11:06:48;;;;;;;17.27;3.30;;;16.50;99.90;;;;;;4935054;29;20233;-70
2022/12/19 11:09:28;;;;;;;21.63;4.00;;;16.50;99.90;;;;;;4935591;29;20197;-73
2022/12/19 11:12:02;;;;;;;17.60;3.33;;;16.40;99.90;;;;;;4934970;29;20673;-69
2022/12/19 11:14:31;;;;;;;18.57;3.87;;;16.40;99.90;;;;;;4935259;29;20189;-73
2022/12/19 11:16:58;;;;;;;20.33;3.63;;;16.30;99.90;;;;;;4934907;29;20184;-75
2022/12/19 11:19:43;;;;;;;20.80;3.53;;;16.30;99.90;;;;;;4934290;29;20180;-74
2022/12/19 11:22:21;;;;;;;24.63;4.13;;;16.20;99.90;;;;;;4934845;29;20203;-72
2022/12/19 11:24:56;;;;;;;14.63;3.33;;;16.20;99.90;;;;;;4935019;29;20271;-71
2022/12/19 11:27:43;;;;;;;19.10;3.53;;;16.10;99.90;;;;;;4935174;29;20184;-72
2022/12/19 11:30:23;;;;;;;21.53;3.63;;;16.00;99.90;;;;;;4937296;29;20180;-72
2022/12/19 11:33:15;;;;;;;15.80;3.80;;;15.90;99.90;;;;;;4938653;29;20192;-70
2022/12/19 11:35:55;;;;;;;13.00;2.67;;;15.90;99.90;;;;;;4938784;29;20268;-70
2022/12/19 11:38:38;;;;;;;15.57;3.07;;;16.00;99.90;;;;;;4938190;29;20547;-72
2022/12/19 11:41:20;;;;;;;17.87;3.63;;;16.10;99.90;;;;;;4937308;29;20185;-74
2022/12/19 11:43:50;;;;;;;23.23;4.07;;;16.10;99.90;;;;;;4938512;29;20255;-75
2022/12/19 11:46:36;;;;;;;15.63;2.90;;;16.10;99.90;;;;;;4938617;29;20208;-72
2022/12/19 11:49:21;;;;;;;18.73;3.73;;;16.00;99.90;;;;;;4938457;29;20211;-79
2022/12/19 11:52:17;;;;;;;18.50;4.00;;;16.00;99.90;;;;;;4937845;29;20173;-77
2022/12/19 11:54:55;;;;;;;21.87;3.47;;;16.00;99.90;;;;;;4937963;29;20196;-72
2022/12/19 11:57:24;;;;;;;12.33;3.27;;;15.90;99.90;;;;;;4938111;29;20183;-75
2022/12/19 11:59:53;;;;;;;17.47;3.67;;;15.90;99.90;;;;;;4937950;29;20257;-76
2022/12/19 12:02:51;;;;;;;23.73;3.87;;;15.80;99.90;;;;;;4937667;29;20204;-74
2022/12/19 12:05:22;;;;;;;14.70;3.53;;;15.80;99.90;;;;;;4938029;29;20222;-77
2022/12/19 12:08:14;;;;;;;11.43;3.13;;;15.90;99.90;;;;;;4938087;29;20252;-72
2022/12/19 12:11:00;;;;;;;15.50;3.33;;;15.90;99.90;;;;;;4938042;29;20180;-71
2022/12/19 12:13:50;;;;;;;23.30;3.97;;;15.90;99.90;;;;;;4937341;29;20635;-75
2022/12/19 12:16:20;;;;;;;14.97;3.07;;;15.90;99.90;;;;;;4937748;29;20184;-77
2022/12/19 12:19:14;;;;;;;17.93;3.03;;;15.90;99.90;;;;;;4937468;29;20185;-74
2022/12/19 12:22:06;;;;;;;21.07;4.00;;;16.00;99.90;;;;;;4937601;29;20180;-73
2022/12/19 12:25:07;;;;;;;17.93;3.10;;;16.00;99.90;;;;;;4937630;29;20655;-72
2022/12/19 12:28:13;;;;;;;21.33;3.67;;;15.90;99.90;;;;;;4937850;29;20280;-78
2022/12/19 12:31:05;;;;;;;17.93;3.70;;;15.90;99.90;;;;;;4937797;29;20180;-76
2022/12/19 12:34:10;;;;;;;15.77;3.43;;;16.00;99.90;;;;;;4937223;29;20185;-77
2022/12/19 12:36:58;;;;;;;22.07;3.53;;;16.10;99.90;;;;;;4937080;29;20725;-76
2022/12/19 12:39:43;;;;;;;15.33;3.53;;;16.00;99.90;;;;;;4935709;29;20196;-74
2022/12/19 12:42:41;;;;;;;11.20;3.13;;;16.00;99.90;;;;;;4935683;29;20296;-78
2022/12/19 12:45:34;;;;;;;15.43;3.53;;;15.80;99.90;;;;;;4935937;29;20213;-74
2022/12/19 12:48:01;;;;;;;14.40;3.17;;;15.70;99.90;;;;;;4923276;29;20193;-75
2022/12/19 12:50:30;;;;;;;13.97;3.37;;;15.60;99.90;;;;;;4936714;29;20228;-77
2022/12/19 12:53:06;;;;;;;18.47;3.80;;;15.60;99.90;;;;;;4936970;29;20696;-77
2022/12/19 12:55:39;;;;;;;14.43;3.27;;;15.50;99.90;;;;;;4935931;29;20180;-74
2022/12/19 12:58:24;;;;;;;18.30;3.53;;;15.40;99.90;;;;;;4937164;29;20188;-77
2022/12/19 13:01:38;;;;;;;13.80;2.93;;;15.40;99.90;;;;;;4936637;29;20252;-77
2022/12/19 13:04:17;;;;;;;26.47;3.90;;;15.40;99.90;;;;;;4933020;29;20217;-77
2022/12/19 13:06:50;;;;;;;12.63;3.13;;;15.30;99.90;;;;;;4936825;29;20260;-76
2022/12/19 13:09:35;;;;;;;18.27;3.77;;;15.30;99.90;;;;;;4936647;29;20176;-76
2022/12/19 13:15:26;;;;;;;16.57;3.10;;;15.30;99.90;;;;;;4936413;29;20252;-75
2022/12/19 13:17:54;;;;;;;16.83;3.03;;;15.20;99.90;;;;;;4936818;29;20176;-72
2022/12/19 13:20:24;;;;;;;22.03;3.17;;;15.20;99.90;;;;;;4936253;29;20721;-77
2022/12/19 13:22:57;;;;;;;16.00;3.40;;;15.20;99.90;;;;;;4935251;29;20192;-72